sensor_id;sensor_type;location;lat;lon;timestamp;P1;durP1;ratioP1;P2;durP2;ratioP2
11927;SDS011;6023;47.070;15.126;2023-04-24T00:02:18;6.77;;;5.13;;
11927;SDS011;6023;47.070;15.126;2023-04-24T00:04:47;5.77;;;4.93;;
11927;SDS011;6023;47.070;15.126;2023-04-24T00:07:16;5.77;;;5.10;;
11927;SDS011;6023;47.070;15.126;2023-04-24T00:09:44;6.00;;;5.37;;
11927;SDS011;6023;47.070;15.126;2023-04-24T00:12:13;6.37;;;5.57;;
11927;SDS011;6023;47.070;15.126;2023-04-24T00:14:41;5.97;;;5.20;;
11927;SDS011;6023;47.070;15.126;2023-04-24T00:17:11;5.77;;;4.87;;
11927;SDS011;6023;47.070;15.126;2023-04-24T00:19:40;5.17;;;4.40;;
11927;SDS011;6023;47.070;15.126;2023-04-24T00:22:09;4.97;;;4.47;;
11927;SDS011;6023;47.070;15.126;2023-04-24T00:24:37;4.97;;;4.47;;
11927;SDS011;6023;47.070;15.126;2023-04-24T00:27:06;4.90;;;4.47;;
11927;SDS011;6023;47.070;15.126;2023-04-24T00:29:34;5.20;;;4.70;;
11927;SDS011;6023;47.070;15.126;2023-04-24T00:32:03;5.83;;;5.07;;
11927;SDS011;6023;47.070;15.126;2023-04-24T00:34:33;4.83;;;4.43;;
11927;SDS011;6023;47.070;15.126;2023-04-24T00:37:01;5.30;;;4.80;;
11927;SDS011;6023;47.070;15.126;2023-04-24T00:39:30;7.60;;;5.07;;
11927;SDS011;6023;47.070;15.126;2023-04-24T00:41:58;6.87;;;5.03;;
11927;SDS011;6023;47.070;15.126;2023-04-24T00:44:28;6.70;;;5.67;;
11927;SDS011;6023;47.070;15.126;2023-04-24T00:46:56;6.27;;;5.67;;
11927;SDS011;6023;47.070;15.126;2023-04-24T00:49:26;5.80;;;5.20;;
11927;SDS011;6023;47.070;15.126;2023-04-24T00:51:56;5.80;;;5.20;;
11927;SDS011;6023;47.070;15.126;2023-04-24T00:54:25;8.03;;;5.30;;
11927;SDS011;6023;47.070;15.126;2023-04-24T00:56:54;5.17;;;4.67;;
11927;SDS011;6023;47.070;15.126;2023-04-24T00:59:23;5.40;;;4.90;;
11927;SDS011;6023;47.070;15.126;2023-04-24T01:01:52;5.20;;;4.70;;
11927;SDS011;6023;47.070;15.126;2023-04-24T01:04:21;5.60;;;5.10;;
11927;SDS011;6023;47.070;15.126;2023-04-24T01:06:49;5.57;;;5.07;;
11927;SDS011;6023;47.070;15.126;2023-04-24T01:09:20;5.13;;;4.70;;
11927;SDS011;6023;47.070;15.126;2023-04-24T01:11:49;5.40;;;4.90;;
11927;SDS011;6023;47.070;15.126;2023-04-24T01:14:18;5.00;;;4.50;;
11927;SDS011;6023;47.070;15.126;2023-04-24T01:16:47;5.60;;;5.10;;
11927;SDS011;6023;47.070;15.126;2023-04-24T01:19:15;6.87;;;5.10;;
11927;SDS011;6023;47.070;15.126;2023-04-24T01:21:44;5.73;;;5.17;;
11927;SDS011;6023;47.070;15.126;2023-04-24T01:24:16;5.37;;;4.87;;
11927;SDS011;6023;47.070;15.126;2023-04-24T01:26:46;6.23;;;5.63;;
11927;SDS011;6023;47.070;15.126;2023-04-24T01:29:14;6.97;;;6.03;;
11927;SDS011;6023;47.070;15.126;2023-04-24T01:31:43;7.23;;;5.80;;
11927;SDS011;6023;47.070;15.126;2023-04-24T01:34:12;5.80;;;5.27;;
11927;SDS011;6023;47.070;15.126;2023-04-24T01:36:41;13.77;;;6.63;;
11927;SDS011;6023;47.070;15.126;2023-04-24T01:39:09;6.17;;;5.50;;
11927;SDS011;6023;47.070;15.126;2023-04-24T01:41:39;7.00;;;5.97;;
11927;SDS011;6023;47.070;15.126;2023-04-24T01:44:08;6.83;;;6.13;;
11927;SDS011;6023;47.070;15.126;2023-04-24T01:46:36;5.70;;;5.10;;
11927;SDS011;6023;47.070;15.126;2023-04-24T01:49:05;9.20;;;6.07;;
11927;SDS011;6023;47.070;15.126;2023-04-24T01:51:34;5.63;;;5.10;;
11927;SDS011;6023;47.070;15.126;2023-04-24T01:54:02;5.80;;;5.20;;
11927;SDS011;6023;47.070;15.126;2023-04-24T01:56:33;5.63;;;5.10;;
11927;SDS011;6023;47.070;15.126;2023-04-24T01:59:03;5.97;;;5.37;;
11927;SDS011;6023;47.070;15.126;2023-04-24T02:01:33;5.73;;;5.13;;
11927;SDS011;6023;47.070;15.126;2023-04-24T02:04:03;5.73;;;5.17;;
11927;SDS011;6023;47.070;15.126;2023-04-24T02:06:32;5.30;;;4.80;;
11927;SDS011;6023;47.070;15.126;2023-04-24T02:09:01;6.67;;;5.47;;
11927;SDS011;6023;47.070;15.126;2023-04-24T02:11:30;5.63;;;4.63;;
11927;SDS011;6023;47.070;15.126;2023-04-24T02:13:59;4.67;;;4.27;;
11927;SDS011;6023;47.070;15.126;2023-04-24T02:16:29;5.97;;;4.50;;
11927;SDS011;6023;47.070;15.126;2023-04-24T02:18:59;5.33;;;4.70;;
11927;SDS011;6023;47.070;15.126;2023-04-24T02:21:28;4.60;;;4.20;;
11927;SDS011;6023;47.070;15.126;2023-04-24T02:23:57;4.97;;;4.40;;
11927;SDS011;6023;47.070;15.126;2023-04-24T02:26:25;5.00;;;4.50;;
11927;SDS011;6023;47.070;15.126;2023-04-24T02:28:54;5.27;;;4.77;;
11927;SDS011;6023;47.070;15.126;2023-04-24T02:31:22;4.90;;;4.50;;
11927;SDS011;6023;47.070;15.126;2023-04-24T02:33:52;5.10;;;4.67;;
11927;SDS011;6023;47.070;15.126;2023-04-24T02:36:21;5.57;;;4.87;;
11927;SDS011;6023;47.070;15.126;2023-04-24T02:38:49;5.17;;;4.67;;
11927;SDS011;6023;47.070;15.126;2023-04-24T02:41:18;5.27;;;4.77;;
11927;SDS011;6023;47.070;15.126;2023-04-24T02:43:46;5.90;;;5.30;;
11927;SDS011;6023;47.070;15.126;2023-04-24T02:46:15;5.27;;;4.87;;
11927;SDS011;6023;47.070;15.126;2023-04-24T02:48:43;5.50;;;5.00;;
11927;SDS011;6023;47.070;15.126;2023-04-24T02:51:14;5.07;;;4.57;;
11927;SDS011;6023;47.070;15.126;2023-04-24T02:53:42;4.83;;;4.33;;
11927;SDS011;6023;47.070;15.126;2023-04-24T02:56:11;5.23;;;4.47;;
11927;SDS011;6023;47.070;15.126;2023-04-24T02:58:39;4.73;;;4.23;;
11927;SDS011;6023;47.070;15.126;2023-04-24T03:01:08;5.00;;;4.50;;
11927;SDS011;6023;47.070;15.126;2023-04-24T03:03:37;5.70;;;4.60;;
11927;SDS011;6023;47.070;15.126;2023-04-24T03:06:06;7.27;;;4.90;;
11927;SDS011;6023;47.070;15.126;2023-04-24T03:08:37;5.50;;;4.90;;
11927;SDS011;6023;47.070;15.126;2023-04-24T03:11:05;5.40;;;4.90;;
11927;SDS011;6023;47.070;15.126;2023-04-24T03:13:34;5.13;;;4.63;;
11927;SDS011;6023;47.070;15.126;2023-04-24T03:16:02;4.97;;;4.47;;
11927;SDS011;6023;47.070;15.126;2023-04-24T03:18:31;5.73;;;5.20;;
11927;SDS011;6023;47.070;15.126;2023-04-24T03:21:00;6.10;;;5.50;;
11927;SDS011;6023;47.070;15.126;2023-04-24T03:23:30;6.07;;;5.47;;
11927;SDS011;6023;47.070;15.126;2023-04-24T03:25:59;6.77;;;6.17;;
11927;SDS011;6023;47.070;15.126;2023-04-24T03:28:28;7.30;;;5.93;;
11927;SDS011;6023;47.070;15.126;2023-04-24T03:30:57;5.50;;;5.00;;
11927;SDS011;6023;47.070;15.126;2023-04-24T03:33:26;7.63;;;5.77;;
11927;SDS011;6023;47.070;15.126;2023-04-24T03:35:55;6.17;;;5.47;;
11927;SDS011;6023;47.070;15.126;2023-04-24T03:38:23;5.50;;;4.77;;
11927;SDS011;6023;47.070;15.126;2023-04-24T03:40:52;5.47;;;4.93;;
11927;SDS011;6023;47.070;15.126;2023-04-24T03:43:22;6.23;;;5.60;;
11927;SDS011;6023;47.070;15.126;2023-04-24T03:45:50;6.27;;;5.60;;
11927;SDS011;6023;47.070;15.126;2023-04-24T03:48:19;5.63;;;5.07;;
11927;SDS011;6023;47.070;15.126;2023-04-24T03:50:47;7.33;;;5.67;;
11927;SDS011;6023;47.070;15.126;2023-04-24T03:53:15;7.47;;;5.50;;
11927;SDS011;6023;47.070;15.126;2023-04-24T03:55:44;5.50;;;5.00;;
11927;SDS011;6023;47.070;15.126;2023-04-24T03:58:12;6.57;;;5.53;;
11927;SDS011;6023;47.070;15.126;2023-04-24T04:00:42;5.87;;;4.80;;
11927;SDS011;6023;47.070;15.126;2023-04-24T04:03:13;6.20;;;4.83;;
11927;SDS011;6023;47.070;15.126;2023-04-24T04:05:42;5.67;;;5.07;;
11927;SDS011;6023;47.070;15.126;2023-04-24T04:08:10;4.90;;;4.27;;
11927;SDS011;6023;47.070;15.126;2023-04-24T04:10:39;5.47;;;4.90;;
11927;SDS011;6023;47.070;15.126;2023-04-24T04:13:07;15.10;;;13.50;;
11927;SDS011;6023;47.070;15.126;2023-04-24T04:15:36;12.53;;;11.20;;
11927;SDS011;6023;47.070;15.126;2023-04-24T04:18:06;8.90;;;8.00;;
11927;SDS011;6023;47.070;15.126;2023-04-24T04:20:35;42.37;;;36.30;;
11927;SDS011;6023;47.070;15.126;2023-04-24T04:23:03;7.80;;;6.97;;
11927;SDS011;6023;47.070;15.126;2023-04-24T04:25:32;6.70;;;5.57;;
11927;SDS011;6023;47.070;15.126;2023-04-24T04:28:01;5.80;;;5.20;;
11927;SDS011;6023;47.070;15.126;2023-04-24T04:30:29;5.20;;;4.70;;
11927;SDS011;6023;47.070;15.126;2023-04-24T04:32:58;5.17;;;4.70;;
11927;SDS011;6023;47.070;15.126;2023-04-24T04:35:29;8.43;;;5.70;;
11927;SDS011;6023;47.070;15.126;2023-04-24T04:37:57;6.17;;;5.57;;
11927;SDS011;6023;47.070;15.126;2023-04-24T04:40:26;6.93;;;5.37;;
11927;SDS011;6023;47.070;15.126;2023-04-24T04:42:55;7.60;;;5.93;;
11927;SDS011;6023;47.070;15.126;2023-04-24T04:45:23;6.97;;;5.90;;
11927;SDS011;6023;47.070;15.126;2023-04-24T04:47:53;6.37;;;5.50;;
11927;SDS011;6023;47.070;15.126;2023-04-24T04:50:22;5.90;;;5.13;;
11927;SDS011;6023;47.070;15.126;2023-04-24T04:52:52;7.07;;;6.20;;
11927;SDS011;6023;47.070;15.126;2023-04-24T04:55:21;8.53;;;7.13;;
11927;SDS011;6023;47.070;15.126;2023-04-24T04:57:50;18.93;;;16.80;;
11927;SDS011;6023;47.070;15.126;2023-04-24T05:00:19;13.27;;;11.77;;
11927;SDS011;6023;47.070;15.126;2023-04-24T05:02:47;7.70;;;7.00;;
11927;SDS011;6023;47.070;15.126;2023-04-24T05:05:16;8.73;;;6.37;;
11927;SDS011;6023;47.070;15.126;2023-04-24T05:07:45;8.57;;;5.73;;
11927;SDS011;6023;47.070;15.126;2023-04-24T05:10:15;10.00;;;5.67;;
11927;SDS011;6023;47.070;15.126;2023-04-24T05:12:43;10.37;;;6.40;;
11927;SDS011;6023;47.070;15.126;2023-04-24T05:15:12;8.03;;;6.03;;
11927;SDS011;6023;47.070;15.126;2023-04-24T05:17:40;9.27;;;6.23;;
11927;SDS011;6023;47.070;15.126;2023-04-24T05:20:09;7.57;;;5.77;;
11927;SDS011;6023;47.070;15.126;2023-04-24T05:22:37;6.20;;;5.30;;
11927;SDS011;6023;47.070;15.126;2023-04-24T05:25:06;8.53;;;6.67;;
11927;SDS011;6023;47.070;15.126;2023-04-24T05:27:36;13.87;;;12.37;;
11927;SDS011;6023;47.070;15.126;2023-04-24T05:30:05;7.90;;;6.97;;
11927;SDS011;6023;47.070;15.126;2023-04-24T05:32:36;10.43;;;6.93;;
11927;SDS011;6023;47.070;15.126;2023-04-24T05:35:04;9.50;;;6.67;;
11927;SDS011;6023;47.070;15.126;2023-04-24T05:37:33;8.93;;;6.23;;
11927;SDS011;6023;47.070;15.126;2023-04-24T05:40:02;8.67;;;5.93;;
11927;SDS011;6023;47.070;15.126;2023-04-24T05:42:32;8.17;;;5.20;;
11927;SDS011;6023;47.070;15.126;2023-04-24T05:45:02;7.17;;;5.30;;
11927;SDS011;6023;47.070;15.126;2023-04-24T05:47:31;7.33;;;5.30;;
11927;SDS011;6023;47.070;15.126;2023-04-24T05:49:59;7.93;;;5.40;;
11927;SDS011;6023;47.070;15.126;2023-04-24T05:52:28;12.53;;;9.17;;
11927;SDS011;6023;47.070;15.126;2023-04-24T05:54:56;16.67;;;14.13;;
11927;SDS011;6023;47.070;15.126;2023-04-24T05:57:25;8.77;;;7.87;;
11927;SDS011;6023;47.070;15.126;2023-04-24T05:59:53;7.50;;;5.87;;
11927;SDS011;6023;47.070;15.126;2023-04-24T06:02:23;6.90;;;5.70;;
11927;SDS011;6023;47.070;15.126;2023-04-24T06:04:52;10.87;;;7.07;;
11927;SDS011;6023;47.070;15.126;2023-04-24T06:07:21;10.40;;;6.83;;
11927;SDS011;6023;47.070;15.126;2023-04-24T06:09:49;9.10;;;6.63;;
11927;SDS011;6023;47.070;15.126;2023-04-24T06:12:18;9.67;;;7.20;;
11927;SDS011;6023;47.070;15.126;2023-04-24T06:14:46;12.83;;;7.67;;
11927;SDS011;6023;47.070;15.126;2023-04-24T06:17:15;9.23;;;7.07;;
11927;SDS011;6023;47.070;15.126;2023-04-24T06:19:45;10.27;;;7.00;;
11927;SDS011;6023;47.070;15.126;2023-04-24T06:22:13;14.90;;;11.40;;
11927;SDS011;6023;47.070;15.126;2023-04-24T06:24:42;13.13;;;9.87;;
11927;SDS011;6023;47.070;15.126;2023-04-24T06:27:10;15.07;;;10.90;;
11927;SDS011;6023;47.070;15.126;2023-04-24T06:29:41;9.50;;;7.90;;
11927;SDS011;6023;47.070;15.126;2023-04-24T06:32:10;13.60;;;8.70;;
11927;SDS011;6023;47.070;15.126;2023-04-24T06:34:38;9.27;;;7.93;;
11927;SDS011;6023;47.070;15.126;2023-04-24T06:37:08;8.67;;;7.57;;
11927;SDS011;6023;47.070;15.126;2023-04-24T06:39:37;7.97;;;7.17;;
11927;SDS011;6023;47.070;15.126;2023-04-24T06:42:05;9.40;;;7.37;;
11927;SDS011;6023;47.070;15.126;2023-04-24T06:44:35;8.73;;;7.60;;
11927;SDS011;6023;47.070;15.126;2023-04-24T06:47:07;8.60;;;6.57;;
11927;SDS011;6023;47.070;15.126;2023-04-24T06:49:36;8.00;;;6.40;;
11927;SDS011;6023;47.070;15.126;2023-04-24T06:52:05;8.40;;;6.87;;
11927;SDS011;6023;47.070;15.126;2023-04-24T06:54:35;10.37;;;7.87;;
11927;SDS011;6023;47.070;15.126;2023-04-24T06:57:04;9.87;;;7.90;;
11927;SDS011;6023;47.070;15.126;2023-04-24T06:59:32;11.83;;;8.63;;
11927;SDS011;6023;47.070;15.126;2023-04-24T07:02:01;11.33;;;8.10;;
11927;SDS011;6023;47.070;15.126;2023-04-24T07:04:30;11.80;;;8.47;;
11927;SDS011;6023;47.070;15.126;2023-04-24T07:06:58;11.73;;;8.90;;
11927;SDS011;6023;47.070;15.126;2023-04-24T07:09:27;8.90;;;7.60;;
11927;SDS011;6023;47.070;15.126;2023-04-24T07:11:57;9.93;;;7.87;;
11927;SDS011;6023;47.070;15.126;2023-04-24T07:14:26;10.53;;;8.57;;
11927;SDS011;6023;47.070;15.126;2023-04-24T07:16:54;11.43;;;8.90;;
11927;SDS011;6023;47.070;15.126;2023-04-24T07:19:23;23.33;;;21.03;;
11927;SDS011;6023;47.070;15.126;2023-04-24T07:21:52;32.50;;;27.33;;
11927;SDS011;6023;47.070;15.126;2023-04-24T07:24:21;19.17;;;15.67;;
11927;SDS011;6023;47.070;15.126;2023-04-24T07:26:52;13.20;;;11.50;;
11927;SDS011;6023;47.070;15.126;2023-04-24T07:29:23;9.70;;;8.70;;
11927;SDS011;6023;47.070;15.126;2023-04-24T07:31:51;9.80;;;8.30;;
11927;SDS011;6023;47.070;15.126;2023-04-24T07:34:20;9.47;;;7.80;;
11927;SDS011;6023;47.070;15.126;2023-04-24T07:36:49;14.50;;;12.67;;
11927;SDS011;6023;47.070;15.126;2023-04-24T07:39:18;27.13;;;24.23;;
11927;SDS011;6023;47.070;15.126;2023-04-24T07:41:46;10.83;;;8.80;;
11927;SDS011;6023;47.070;15.126;2023-04-24T07:44:15;10.13;;;8.37;;
11927;SDS011;6023;47.070;15.126;2023-04-24T07:46:45;8.87;;;7.93;;
11927;SDS011;6023;47.070;15.126;2023-04-24T07:49:13;10.07;;;7.97;;
11927;SDS011;6023;47.070;15.126;2023-04-24T07:51:45;11.03;;;8.80;;
11927;SDS011;6023;47.070;15.126;2023-04-24T07:54:13;9.23;;;8.23;;
11927;SDS011;6023;47.070;15.126;2023-04-24T07:56:42;13.07;;;8.97;;
11927;SDS011;6023;47.070;15.126;2023-04-24T07:59:11;10.97;;;8.77;;
11927;SDS011;6023;47.070;15.126;2023-04-24T08:01:39;10.47;;;8.97;;
11927;SDS011;6023;47.070;15.126;2023-04-24T08:04:09;33.70;;;30.13;;
11927;SDS011;6023;47.070;15.126;2023-04-24T08:06:38;28.17;;;25.20;;
11927;SDS011;6023;47.070;15.126;2023-04-24T08:09:07;12.73;;;10.77;;
11927;SDS011;6023;47.070;15.126;2023-04-24T08:11:35;10.07;;;8.70;;
11927;SDS011;6023;47.070;15.126;2023-04-24T08:14:04;11.07;;;8.70;;
11927;SDS011;6023;47.070;15.126;2023-04-24T08:16:32;9.63;;;8.50;;
11927;SDS011;6023;47.070;15.126;2023-04-24T08:19:02;9.90;;;8.13;;
11927;SDS011;6023;47.070;15.126;2023-04-24T08:21:32;11.03;;;8.80;;
11927;SDS011;6023;47.070;15.126;2023-04-24T08:24:01;10.03;;;8.50;;
11927;SDS011;6023;47.070;15.126;2023-04-24T08:26:31;11.93;;;8.43;;
11927;SDS011;6023;47.070;15.126;2023-04-24T08:29:00;13.17;;;9.67;;
11927;SDS011;6023;47.070;15.126;2023-04-24T08:31:28;34.30;;;30.73;;
11927;SDS011;6023;47.070;15.126;2023-04-24T08:33:57;20.10;;;17.80;;
11927;SDS011;6023;47.070;15.126;2023-04-24T08:36:26;13.40;;;11.50;;
11927;SDS011;6023;47.070;15.126;2023-04-24T08:39:13;11.03;;;9.20;;
11927;SDS011;6023;47.070;15.126;2023-04-24T08:41:42;12.37;;;10.00;;
11927;SDS011;6023;47.070;15.126;2023-04-24T08:44:12;10.97;;;9.33;;
11927;SDS011;6023;47.070;15.126;2023-04-24T08:46:43;12.83;;;9.93;;
11927;SDS011;6023;47.070;15.126;2023-04-24T08:49:13;13.33;;;10.67;;
11927;SDS011;6023;47.070;15.126;2023-04-24T08:51:42;12.90;;;9.07;;
11927;SDS011;6023;47.070;15.126;2023-04-24T08:54:13;11.97;;;9.10;;
11927;SDS011;6023;47.070;15.126;2023-04-24T08:56:42;12.83;;;8.83;;
11927;SDS011;6023;47.070;15.126;2023-04-24T08:59:12;10.13;;;8.60;;
11927;SDS011;6023;47.070;15.126;2023-04-24T09:01:41;10.63;;;9.40;;
11927;SDS011;6023;47.070;15.126;2023-04-24T09:04:10;11.27;;;9.27;;
11927;SDS011;6023;47.070;15.126;2023-04-24T09:06:41;19.47;;;17.00;;
11927;SDS011;6023;47.070;15.126;2023-04-24T09:09:10;13.53;;;11.93;;
11927;SDS011;6023;47.070;15.126;2023-04-24T09:11:40;10.33;;;9.27;;
11927;SDS011;6023;47.070;15.126;2023-04-24T09:14:09;9.43;;;8.30;;
11927;SDS011;6023;47.070;15.126;2023-04-24T09:16:37;11.63;;;9.83;;
11927;SDS011;6023;47.070;15.126;2023-04-24T09:19:06;12.40;;;10.77;;
11927;SDS011;6023;47.070;15.126;2023-04-24T09:21:35;20.83;;;18.70;;
11927;SDS011;6023;47.070;15.126;2023-04-24T09:24:04;12.03;;;10.83;;
11927;SDS011;6023;47.070;15.126;2023-04-24T09:26:34;11.57;;;9.33;;
11927;SDS011;6023;47.070;15.126;2023-04-24T09:29:05;9.60;;;7.80;;
11927;SDS011;6023;47.070;15.126;2023-04-24T09:31:33;9.93;;;7.97;;
11927;SDS011;6023;47.070;15.126;2023-04-24T09:34:02;11.33;;;8.20;;
11927;SDS011;6023;47.070;15.126;2023-04-24T09:36:34;8.60;;;6.90;;
11927;SDS011;6023;47.070;15.126;2023-04-24T09:39:05;8.83;;;7.50;;
11927;SDS011;6023;47.070;15.126;2023-04-24T09:41:43;8.60;;;7.53;;
11927;SDS011;6023;47.070;15.126;2023-04-24T09:44:14;8.20;;;7.27;;
11927;SDS011;6023;47.070;15.126;2023-04-24T09:46:44;9.10;;;7.83;;
11927;SDS011;6023;47.070;15.126;2023-04-24T09:49:16;8.10;;;7.30;;
11927;SDS011;6023;47.070;15.126;2023-04-24T09:51:48;8.50;;;7.03;;
11927;SDS011;6023;47.070;15.126;2023-04-24T09:54:17;7.40;;;6.23;;
11927;SDS011;6023;47.070;15.126;2023-04-24T09:56:47;8.43;;;5.77;;
11927;SDS011;6023;47.070;15.126;2023-04-24T09:59:18;7.00;;;6.20;;
11927;SDS011;6023;47.070;15.126;2023-04-24T10:01:47;12.50;;;10.93;;
11927;SDS011;6023;47.070;15.126;2023-04-24T10:04:19;8.03;;;7.23;;
11927;SDS011;6023;47.070;15.126;2023-04-24T10:06:49;7.80;;;6.07;;
11927;SDS011;6023;47.070;15.126;2023-04-24T10:09:18;16.40;;;14.60;;
11927;SDS011;6023;47.070;15.126;2023-04-24T10:11:51;9.43;;;8.20;;
11927;SDS011;6023;47.070;15.126;2023-04-24T10:14:22;9.57;;;6.93;;
11927;SDS011;6023;47.070;15.126;2023-04-24T10:16:52;8.77;;;5.80;;
11927;SDS011;6023;47.070;15.126;2023-04-24T10:19:23;5.70;;;4.90;;
11927;SDS011;6023;47.070;15.126;2023-04-24T10:21:53;5.33;;;4.80;;
11927;SDS011;6023;47.070;15.126;2023-04-24T10:24:22;5.60;;;4.07;;
11927;SDS011;6023;47.070;15.126;2023-04-24T10:26:51;4.90;;;3.80;;
11927;SDS011;6023;47.070;15.126;2023-04-24T10:29:22;4.63;;;3.90;;
11927;SDS011;6023;47.070;15.126;2023-04-24T10:31:50;5.90;;;4.37;;
11927;SDS011;6023;47.070;15.126;2023-04-24T10:34:19;15.07;;;11.40;;
11927;SDS011;6023;47.070;15.126;2023-04-24T10:36:50;5.77;;;5.17;;
11927;SDS011;6023;47.070;15.126;2023-04-24T10:39:23;16.53;;;14.93;;
11927;SDS011;6023;47.070;15.126;2023-04-24T10:41:53;23.20;;;20.73;;
11927;SDS011;6023;47.070;15.126;2023-04-24T10:44:25;13.50;;;12.10;;
11927;SDS011;6023;47.070;15.126;2023-04-24T10:47:04;6.77;;;4.63;;
11927;SDS011;6023;47.070;15.126;2023-04-24T10:49:32;5.73;;;4.93;;
11927;SDS011;6023;47.070;15.126;2023-04-24T10:52:01;4.37;;;3.70;;
11927;SDS011;6023;47.070;15.126;2023-04-24T10:54:34;4.87;;;3.90;;
11927;SDS011;6023;47.070;15.126;2023-04-24T11:00:14;12.70;;;11.40;;
11927;SDS011;6023;47.070;15.126;2023-04-24T11:02:45;5.87;;;5.27;;
11927;SDS011;6023;47.070;15.126;2023-04-24T11:05:18;4.57;;;3.10;;
11927;SDS011;6023;47.070;15.126;2023-04-24T11:10:40;9.03;;;7.57;;
11927;SDS011;6023;47.070;15.126;2023-04-24T11:13:14;5.77;;;3.57;;
11927;SDS011;6023;47.070;15.126;2023-04-24T11:15:45;3.57;;;3.27;;
11927;SDS011;6023;47.070;15.126;2023-04-24T11:18:43;4.00;;;3.00;;
11927;SDS011;6023;47.070;15.126;2023-04-24T11:21:17;3.40;;;3.03;;
11927;SDS011;6023;47.070;15.126;2023-04-24T11:23:46;3.33;;;3.03;;
11927;SDS011;6023;47.070;15.126;2023-04-24T11:26:17;3.70;;;3.10;;
11927;SDS011;6023;47.070;15.126;2023-04-24T11:28:46;3.70;;;3.27;;
11927;SDS011;6023;47.070;15.126;2023-04-24T11:31:36;5.60;;;3.23;;
11927;SDS011;6023;47.070;15.126;2023-04-24T11:34:06;4.80;;;3.17;;
11927;SDS011;6023;47.070;15.126;2023-04-24T11:36:36;3.90;;;3.30;;
11927;SDS011;6023;47.070;15.126;2023-04-24T11:39:04;4.30;;;3.13;;
11927;SDS011;6023;47.070;15.126;2023-04-24T11:41:33;4.23;;;2.80;;
11927;SDS011;6023;47.070;15.126;2023-04-24T11:44:02;3.73;;;3.43;;
11927;SDS011;6023;47.070;15.126;2023-04-24T11:46:31;3.97;;;2.97;;
11927;SDS011;6023;47.070;15.126;2023-04-24T11:49:01;3.30;;;2.20;;
11927;SDS011;6023;47.070;15.126;2023-04-24T11:51:30;2.60;;;2.40;;
11927;SDS011;6023;47.070;15.126;2023-04-24T11:54:13;3.43;;;2.20;;
11927;SDS011;6023;47.070;15.126;2023-04-24T11:56:44;2.03;;;1.93;;
11927;SDS011;6023;47.070;15.126;2023-04-24T11:59:13;1.80;;;1.70;;
11927;SDS011;6023;47.070;15.126;2023-04-24T12:01:44;2.27;;;1.87;;
11927;SDS011;6023;47.070;15.126;2023-04-24T12:04:16;2.10;;;1.30;;
11927;SDS011;6023;47.070;15.126;2023-04-24T12:06:58;1.30;;;1.30;;
11927;SDS011;6023;47.070;15.126;2023-04-24T12:09:27;1.30;;;1.30;;
11927;SDS011;6023;47.070;15.126;2023-04-24T12:11:57;2.30;;;1.40;;
11927;SDS011;6023;47.070;15.126;2023-04-24T12:14:25;1.53;;;1.40;;
11927;SDS011;6023;47.070;15.126;2023-04-24T12:16:54;1.50;;;1.40;;
11927;SDS011;6023;47.070;15.126;2023-04-24T12:19:23;1.53;;;1.43;;
11927;SDS011;6023;47.070;15.126;2023-04-24T12:21:59;1.87;;;1.70;;
11927;SDS011;6023;47.070;15.126;2023-04-24T12:24:28;2.27;;;1.70;;
11927;SDS011;6023;47.070;15.126;2023-04-24T12:26:57;1.70;;;1.60;;
11927;SDS011;6023;47.070;15.126;2023-04-24T12:29:28;2.50;;;1.90;;
11927;SDS011;6023;47.070;15.126;2023-04-24T12:31:56;1.83;;;1.70;;
11927;SDS011;6023;47.070;15.126;2023-04-24T12:34:26;3.57;;;3.03;;
11927;SDS011;6023;47.070;15.126;2023-04-24T12:36:55;2.77;;;2.07;;
11927;SDS011;6023;47.070;15.126;2023-04-24T12:39:23;3.23;;;1.90;;
11927;SDS011;6023;47.070;15.126;2023-04-24T12:41:57;1.67;;;1.53;;
11927;SDS011;6023;47.070;15.126;2023-04-24T12:44:28;2.20;;;1.60;;
11927;SDS011;6023;47.070;15.126;2023-04-24T12:46:58;2.13;;;1.70;;
11927;SDS011;6023;47.070;15.126;2023-04-24T12:49:30;2.33;;;1.87;;
11927;SDS011;6023;47.070;15.126;2023-04-24T12:51:58;1.57;;;1.47;;
11927;SDS011;6023;47.070;15.126;2023-04-24T12:54:31;1.50;;;1.40;;
11927;SDS011;6023;47.070;15.126;2023-04-24T12:57:00;1.80;;;1.70;;
11927;SDS011;6023;47.070;15.126;2023-04-24T12:59:29;1.87;;;1.63;;
11927;SDS011;6023;47.070;15.126;2023-04-24T13:01:57;1.50;;;1.40;;
11927;SDS011;6023;47.070;15.126;2023-04-24T13:04:26;1.50;;;1.40;;
11927;SDS011;6023;47.070;15.126;2023-04-24T13:06:56;1.33;;;1.23;;
11927;SDS011;6023;47.070;15.126;2023-04-24T13:09:24;3.57;;;1.30;;
11927;SDS011;6023;47.070;15.126;2023-04-24T13:11:53;2.50;;;1.60;;
11927;SDS011;6023;47.070;15.126;2023-04-24T13:14:23;1.83;;;1.73;;
11927;SDS011;6023;47.070;15.126;2023-04-24T13:16:51;3.03;;;2.60;;
11927;SDS011;6023;47.070;15.126;2023-04-24T13:19:20;3.77;;;3.40;;
11927;SDS011;6023;47.070;15.126;2023-04-24T13:21:48;3.00;;;2.70;;
11927;SDS011;6023;47.070;15.126;2023-04-24T13:24:18;3.53;;;2.80;;
11927;SDS011;6023;47.070;15.126;2023-04-24T13:26:47;3.70;;;2.63;;
11927;SDS011;6023;47.070;15.126;2023-04-24T13:29:16;2.30;;;2.10;;
11927;SDS011;6023;47.070;15.126;2023-04-24T13:31:45;1.90;;;1.80;;
11927;SDS011;6023;47.070;15.126;2023-04-24T13:34:15;1.90;;;1.80;;
11927;SDS011;6023;47.070;15.126;2023-04-24T13:36:43;3.23;;;2.70;;
11927;SDS011;6023;47.070;15.126;2023-04-24T13:39:12;2.47;;;2.27;;
11927;SDS011;6023;47.070;15.126;2023-04-24T13:41:42;2.70;;;2.37;;
11927;SDS011;6023;47.070;15.126;2023-04-24T13:44:11;3.07;;;2.63;;
11927;SDS011;6023;47.070;15.126;2023-04-24T13:46:40;3.63;;;3.00;;
11927;SDS011;6023;47.070;15.126;2023-04-24T13:49:10;3.77;;;2.60;;
11927;SDS011;6023;47.070;15.126;2023-04-24T13:51:38;2.97;;;2.50;;
11927;SDS011;6023;47.070;15.126;2023-04-24T13:54:08;3.37;;;2.40;;
11927;SDS011;6023;47.070;15.126;2023-04-24T13:56:36;2.70;;;2.47;;
11927;SDS011;6023;47.070;15.126;2023-04-24T13:59:06;2.43;;;2.23;;
11927;SDS011;6023;47.070;15.126;2023-04-24T14:01:35;2.67;;;2.43;;
11927;SDS011;6023;47.070;15.126;2023-04-24T14:04:03;3.10;;;2.70;;
11927;SDS011;6023;47.070;15.126;2023-04-24T14:06:32;2.80;;;2.60;;
11927;SDS011;6023;47.070;15.126;2023-04-24T14:09:01;5.63;;;4.53;;
11927;SDS011;6023;47.070;15.126;2023-04-24T14:11:30;12.73;;;10.37;;
11927;SDS011;6023;47.070;15.126;2023-04-24T14:13:59;10.93;;;9.53;;
11927;SDS011;6023;47.070;15.126;2023-04-24T14:16:29;4.60;;;4.17;;
11927;SDS011;6023;47.070;15.126;2023-04-24T14:18:58;3.80;;;2.60;;
11927;SDS011;6023;47.070;15.126;2023-04-24T14:21:27;22.70;;;20.30;;
11927;SDS011;6023;47.070;15.126;2023-04-24T14:23:55;11.93;;;10.73;;
11927;SDS011;6023;47.070;15.126;2023-04-24T14:26:24;4.43;;;3.23;;
11927;SDS011;6023;47.070;15.126;2023-04-24T14:28:52;2.47;;;2.27;;
11927;SDS011;6023;47.070;15.126;2023-04-24T14:31:38;5.53;;;3.40;;
11927;SDS011;6023;47.070;15.126;2023-04-24T14:34:08;2.77;;;2.20;;
11927;SDS011;6023;47.070;15.126;2023-04-24T14:36:38;4.00;;;3.17;;
11927;SDS011;6023;47.070;15.126;2023-04-24T14:39:07;16.60;;;15.00;;
11927;SDS011;6023;47.070;15.126;2023-04-24T14:41:36;8.97;;;8.13;;
11927;SDS011;6023;47.070;15.126;2023-04-24T14:44:08;6.70;;;6.00;;
11927;SDS011;6023;47.070;15.126;2023-04-24T14:46:39;4.93;;;4.03;;
11927;SDS011;6023;47.070;15.126;2023-04-24T14:49:08;5.23;;;4.73;;
11927;SDS011;6023;47.070;15.126;2023-04-24T14:51:39;2.80;;;2.53;;
11927;SDS011;6023;47.070;15.126;2023-04-24T14:54:09;2.77;;;2.50;;
11927;SDS011;6023;47.070;15.126;2023-04-24T14:56:44;2.60;;;2.40;;
11927;SDS011;6023;47.070;15.126;2023-04-24T14:59:18;2.50;;;2.03;;
11927;SDS011;6023;47.070;15.126;2023-04-24T15:01:49;2.57;;;2.37;;
11927;SDS011;6023;47.070;15.126;2023-04-24T15:04:32;2.13;;;1.93;;